createdAt,value
2019-04-29T00:02:31.069Z,99.90
2019-04-29T00:05:18.517Z,99.90
2019-04-29T00:08:06.170Z,99.90
2019-04-29T00:10:53.898Z,99.90
2019-04-29T00:13:41.649Z,99.90
2019-04-29T00:16:40.059Z,99.90
2019-04-29T00:19:29.227Z,99.90
2019-04-29T00:22:16.590Z,99.90
2019-04-29T00:25:05.177Z,99.90
2019-04-29T00:27:52.565Z,99.90
2019-04-29T00:30:40.290Z,99.90
2019-04-29T00:33:27.942Z,99.90
2019-04-29T00:36:16.589Z,99.90
2019-04-29T00:39:23.445Z,99.90
2019-04-29T00:42:18.831Z,99.90
2019-04-29T00:45:07.536Z,99.90
2019-04-29T00:47:55.305Z,99.90
2019-04-29T00:50:42.810Z,99.90
2019-04-29T00:53:30.309Z,99.90
2019-04-29T00:56:17.709Z,99.90
2019-04-29T00:59:05.206Z,99.90
2019-04-29T01:01:53.083Z,99.90
2019-04-29T01:04:40.463Z,99.90
2019-04-29T01:07:37.100Z,99.90
2019-04-29T01:10:24.514Z,99.90
2019-04-29T01:13:12.221Z,99.90
2019-04-29T01:15:59.864Z,99.90
2019-04-29T01:18:47.300Z,99.90
2019-04-29T01:21:34.934Z,99.90
2019-04-29T01:24:22.601Z,99.90
2019-04-29T01:27:11.797Z,99.90
2019-04-29T01:29:59.333Z,99.90
2019-04-29T01:32:46.766Z,99.90
2019-04-29T01:35:34.142Z,99.90
2019-04-29T01:38:21.897Z,99.90
2019-04-29T01:41:13.633Z,99.90
2019-04-29T01:44:06.274Z,99.90
2019-04-29T01:46:53.621Z,99.90
2019-04-29T01:49:41.217Z,99.90
2019-04-29T01:52:28.858Z,99.90
2019-04-29T01:55:16.478Z,99.90
2019-04-29T01:58:03.890Z,99.90
2019-04-29T02:00:51.490Z,99.90
2019-04-29T02:03:38.865Z,99.90
2019-04-29T02:06:26.661Z,99.90
2019-04-29T02:09:15.950Z,99.90
2019-04-29T02:12:03.517Z,99.90
2019-04-29T02:14:51.417Z,99.90
2019-04-29T02:17:39.244Z,99.90
2019-04-29T02:20:26.952Z,99.90
2019-04-29T02:23:19.146Z,99.90
2019-04-29T02:26:07.523Z,99.90
2019-04-29T02:28:54.991Z,99.90
2019-04-29T02:31:44.386Z,99.90
2019-04-29T02:34:31.753Z,99.90
2019-04-29T02:37:21.106Z,99.90
2019-04-29T02:40:10.212Z,99.90
2019-04-29T02:42:59.659Z,99.90
2019-04-29T02:45:47.949Z,99.90
2019-04-29T02:48:35.375Z,99.90
2019-04-29T02:51:40.972Z,99.90
2019-04-29T02:54:29.628Z,99.90
2019-04-29T02:57:31.025Z,99.90
2019-04-29T03:00:26.143Z,99.90
2019-04-29T03:03:24.539Z,99.90
2019-04-29T03:06:12.446Z,99.90
2019-04-29T03:09:00.043Z,99.90
2019-04-29T03:11:47.467Z,99.90
2019-04-29T03:14:35.309Z,99.90
2019-04-29T03:17:22.793Z,99.90
2019-04-29T03:20:17.503Z,99.90
2019-04-29T03:23:10.366Z,99.90
2019-04-29T03:25:58.144Z,99.90
2019-04-29T03:28:46.015Z,99.90
2019-04-29T03:31:39.097Z,99.90
2019-04-29T03:34:22.950Z,99.90
2019-04-29T03:37:10.378Z,99.90
2019-04-29T03:39:58.110Z,99.90
2019-04-29T03:42:45.761Z,99.90
2019-04-29T03:45:33.385Z,99.90
2019-04-29T03:48:21.002Z,99.90
2019-04-29T03:51:08.483Z,99.90
2019-04-29T03:53:56.150Z,99.90
2019-04-29T03:56:44.592Z,99.90
2019-04-29T03:59:31.997Z,99.90
2019-04-29T04:02:27.481Z,99.90
2019-04-29T04:05:32.750Z,99.90
2019-04-29T04:08:33.795Z,99.90
2019-04-29T04:11:21.198Z,99.90
2019-04-29T04:14:08.990Z,99.90
2019-04-29T04:17:04.055Z,99.90
2019-04-29T04:19:52.261Z,99.90
2019-04-29T04:22:46.644Z,99.90
2019-04-29T04:25:34.285Z,99.90
2019-04-29T04:28:21.846Z,99.90
2019-04-29T04:31:09.523Z,99.90
2019-04-29T04:33:57.070Z,99.90
2019-04-29T04:36:44.771Z,99.90
2019-04-29T04:39:33.802Z,99.90
2019-04-29T04:42:21.521Z,99.90
2019-04-29T04:45:09.266Z,99.90
2019-04-29T04:47:56.962Z,99.90
2019-04-29T04:50:44.589Z,99.90
2019-04-29T04:53:32.001Z,99.90
2019-04-29T04:56:19.627Z,99.90
2019-04-29T04:59:07.321Z,99.90
2019-04-29T05:01:54.983Z,99.90
2019-04-29T05:04:42.329Z,99.90
2019-04-29T05:07:30.002Z,99.90
2019-04-29T05:10:17.678Z,99.90
2019-04-29T05:13:05.205Z,99.90
2019-04-29T05:15:52.684Z,99.90
2019-04-29T05:18:40.386Z,99.90
2019-04-29T05:21:27.966Z,99.90
2019-04-29T05:24:15.639Z,99.90
2019-04-29T05:27:03.310Z,99.90
2019-04-29T05:29:50.876Z,99.90
2019-04-29T05:32:38.522Z,99.90
2019-04-29T05:35:44.079Z,99.90
2019-04-29T05:38:39.019Z,99.90
2019-04-29T05:41:30.102Z,99.90
2019-04-29T05:44:19.125Z,99.90
2019-04-29T05:47:08.501Z,99.90
2019-04-29T05:50:16.709Z,99.90
2019-04-29T05:53:11.425Z,99.90
2019-04-29T05:55:57.300Z,99.90
2019-04-29T05:58:45.061Z,99.90
2019-04-29T06:01:32.433Z,99.90
2019-04-29T06:04:19.769Z,99.90
2019-04-29T06:07:07.452Z,99.90
2019-04-29T06:09:55.203Z,99.90
2019-04-29T06:12:44.485Z,99.90
2019-04-29T06:15:31.589Z,99.90
2019-04-29T06:18:22.142Z,99.90
2019-04-29T06:21:09.811Z,99.90
2019-04-29T06:23:59.493Z,99.90
2019-04-29T06:26:46.436Z,99.90
2019-04-29T06:29:34.121Z,99.90
2019-04-29T06:32:24.952Z,99.90
2019-04-29T06:35:14.192Z,99.90
2019-04-29T06:38:00.383Z,99.90
2019-04-29T06:40:47.849Z,99.90
2019-04-29T06:43:35.518Z,99.90
2019-04-29T06:46:23.453Z,99.90
2019-04-29T06:49:11.018Z,99.90
2019-04-29T06:51:58.713Z,99.90
2019-04-29T06:54:46.166Z,99.90
2019-04-29T06:57:33.768Z,99.90
2019-04-29T07:00:22.330Z,99.90
2019-04-29T07:03:10.505Z,99.90
2019-04-29T07:05:58.087Z,99.90
2019-04-29T07:08:45.415Z,99.90
2019-04-29T07:11:36.538Z,99.90
2019-04-29T07:14:22.955Z,99.90
2019-04-29T07:17:10.733Z,99.90
2019-04-29T07:20:01.962Z,99.90
2019-04-29T07:22:47.992Z,99.90
2019-04-29T07:25:35.433Z,99.90
2019-04-29T07:28:23.124Z,99.90
2019-04-29T07:31:10.938Z,99.90
2019-04-29T07:33:59.146Z,99.90
2019-04-29T07:36:46.569Z,99.90
2019-04-29T07:39:34.070Z,99.90
2019-04-29T07:42:25.073Z,99.90
2019-04-29T07:45:23.783Z,99.90
2019-04-29T07:48:11.413Z,99.90
2019-04-29T07:50:59.624Z,99.90
2019-04-29T07:53:48.587Z,99.90
2019-04-29T07:56:37.939Z,99.90
2019-04-29T07:59:25.584Z,99.90
2019-04-29T08:02:13.073Z,99.90
2019-04-29T08:05:00.853Z,99.90
2019-04-29T08:07:48.792Z,99.90
2019-04-29T08:10:36.456Z,99.90
2019-04-29T08:13:26.335Z,99.90
2019-04-29T08:16:17.077Z,99.90
2019-04-29T08:19:04.820Z,99.90
2019-04-29T08:21:52.729Z,99.90
2019-04-29T08:24:40.028Z,99.90
2019-04-29T08:27:39.233Z,99.90
2019-04-29T08:30:18.349Z,99.90
2019-04-29T08:33:07.507Z,99.90
2019-04-29T08:35:55.282Z,99.90
2019-04-29T08:38:42.730Z,99.90
2019-04-29T08:41:30.306Z,99.90
2019-04-29T08:44:34.346Z,99.90
2019-04-29T08:47:30.543Z,99.90
2019-04-29T08:50:15.853Z,99.90
2019-04-29T08:53:03.918Z,99.90
2019-04-29T08:55:51.657Z,99.90
2019-04-29T08:58:39.590Z,99.90
2019-04-29T09:01:29.359Z,99.90
2019-04-29T09:04:16.735Z,99.90
2019-04-29T09:07:12.325Z,99.90
2019-04-29T09:09:56.064Z,99.90
2019-04-29T09:12:43.386Z,99.90
2019-04-29T09:15:31.021Z,99.90
2019-04-29T09:18:18.625Z,99.90
2019-04-29T09:21:06.061Z,99.90
2019-04-29T09:23:53.725Z,99.90
2019-04-29T09:26:43.057Z,99.90
2019-04-29T09:29:31.904Z,99.90
2019-04-29T09:32:19.682Z,99.90
2019-04-29T09:35:07.766Z,99.90
2019-04-29T09:37:58.405Z,99.90
2019-04-29T09:40:48.804Z,99.90
2019-04-29T09:43:46.565Z,99.90
2019-04-29T09:46:35.925Z,99.90
2019-04-29T09:49:23.675Z,99.90
2019-04-29T09:52:11.264Z,99.90
2019-04-29T09:54:59.542Z,99.90
2019-04-29T09:57:48.854Z,99.90
2019-04-29T10:00:40.684Z,99.90
2019-04-29T10:03:44.979Z,97.10
2019-04-29T10:06:39.962Z,97.30
2019-04-29T10:09:28.079Z,97.30
2019-04-29T10:12:15.802Z,97.00
2019-04-29T10:15:05.289Z,96.50
2019-04-29T10:17:56.091Z,95.70
2019-04-29T10:20:45.659Z,94.90
2019-04-29T10:23:33.170Z,94.50
2019-04-29T10:26:20.921Z,94.50
2019-04-29T10:29:13.843Z,94.20
2019-04-29T10:32:02.433Z,92.50
2019-04-29T10:34:48.849Z,93.90
2019-04-29T10:37:36.254Z,92.90
2019-04-29T10:40:35.718Z,90.30
2019-04-29T10:43:41.634Z,92.30
2019-04-29T10:46:31.131Z,92.80
2019-04-29T10:49:20.225Z,91.90
2019-04-29T10:52:07.917Z,91.70
2019-04-29T10:54:56.553Z,90.90
2019-04-29T10:57:44.938Z,87.40
2019-04-29T11:00:59.454Z,89.30
2019-04-29T11:03:47.022Z,87.90
2019-04-29T11:06:35.980Z,85.60
2019-04-29T11:09:42.286Z,87.60
2019-04-29T11:12:29.851Z,90.30
2019-04-29T11:15:19.050Z,91.30
2019-04-29T11:18:07.182Z,87.80
2019-04-29T11:20:55.513Z,89.00
2019-04-29T11:23:50.564Z,90.30
2019-04-29T11:26:44.927Z,91.00
2019-04-29T11:29:35.699Z,89.90
2019-04-29T11:32:24.838Z,86.10
2019-04-29T11:35:24.536Z,85.90
2019-04-29T11:38:13.809Z,86.10
2019-04-29T11:41:01.198Z,83.30
2019-04-29T11:43:50.970Z,84.10
2019-04-29T11:46:38.053Z,84.20
2019-04-29T11:49:27.445Z,82.40
2019-04-29T11:52:15.392Z,83.00
2019-04-29T11:55:03.137Z,76.90
2019-04-29T11:57:52.318Z,82.50
2019-04-29T12:00:53.935Z,81.70
2019-04-29T12:03:43.108Z,75.60
2019-04-29T12:06:30.449Z,79.30
2019-04-29T12:09:18.129Z,78.80
2019-04-29T12:12:07.780Z,77.60
2019-04-29T12:14:56.320Z,78.50
2019-04-29T12:17:45.725Z,78.40
2019-04-29T12:20:37.530Z,74.90
2019-04-29T12:23:25.089Z,76.90
2019-04-29T12:26:12.917Z,73.30
2019-04-29T12:29:00.390Z,73.60
2019-04-29T12:32:04.741Z,72.80
2019-04-29T12:34:56.764Z,74.10
2019-04-29T12:37:51.962Z,73.90
2019-04-29T12:40:50.181Z,69.50
2019-04-29T12:43:53.593Z,71.10
2019-04-29T12:46:43.910Z,64.80
2019-04-29T12:49:31.573Z,69.50
2019-04-29T12:52:19.217Z,65.70
2019-04-29T12:55:19.718Z,65.10
2019-04-29T12:57:57.606Z,65.50
2019-04-29T13:00:48.264Z,63.50
2019-04-29T13:03:51.346Z,62.80
2019-04-29T13:06:49.606Z,62.10
2019-04-29T13:09:38.750Z,65.70
2019-04-29T13:12:26.765Z,64.10
2019-04-29T13:15:33.311Z,63.20
2019-04-29T13:18:27.594Z,65.80
2019-04-29T13:21:15.305Z,63.80
2019-04-29T13:24:13.237Z,63.60
2019-04-29T13:26:52.869Z,64.30
2019-04-29T13:29:40.329Z,64.10
2019-04-29T13:32:29.759Z,64.30
2019-04-29T13:35:17.718Z,62.80
2019-04-29T13:38:05.492Z,62.50
2019-04-29T13:41:11.415Z,61.50
2019-04-29T13:43:42.405Z,61.10
2019-04-29T13:46:40.768Z,60.20
2019-04-29T13:49:29.693Z,59.30
2019-04-29T13:52:17.461Z,59.30
2019-04-29T13:55:17.329Z,60.40
2019-04-29T13:57:55.193Z,61.10
2019-04-29T14:01:01.622Z,62.50
2019-04-29T14:04:06.813Z,61.00
2019-04-29T14:09:43.294Z,62.90
2019-04-29T14:15:21.070Z,66.00
2019-04-29T14:18:11.590Z,66.30
2019-04-29T14:20:57.912Z,67.00
2019-04-29T14:23:45.565Z,65.80
2019-04-29T14:26:37.104Z,69.10
2019-04-29T14:29:28.165Z,68.80
2019-04-29T14:32:18.318Z,68.60
2019-04-29T14:35:11.769Z,69.50
2019-04-29T14:38:04.620Z,71.40
2019-04-29T14:40:49.492Z,67.20
2019-04-29T14:43:54.999Z,67.60
2019-04-29T14:46:50.818Z,68.30
2019-04-29T14:49:48.938Z,68.60
2019-04-29T14:52:36.464Z,67.70
2019-04-29T14:55:25.524Z,66.30
2019-04-29T14:58:13.766Z,67.20
2019-04-29T15:01:06.312Z,65.10
2019-04-29T15:03:55.701Z,64.60
2019-04-29T15:06:43.341Z,63.10
2019-04-29T15:09:31.196Z,61.60
2019-04-29T15:12:21.759Z,61.00
2019-04-29T15:15:29.759Z,57.80
2019-04-29T15:18:46.162Z,59.90
2019-04-29T15:21:32.854Z,59.90
2019-04-29T15:24:19.973Z,60.20
2019-04-29T15:27:08.034Z,62.30
2019-04-29T15:29:55.678Z,62.90
2019-04-29T15:32:43.377Z,63.80
2019-04-29T15:35:31.118Z,64.10
2019-04-29T15:38:18.860Z,67.10
2019-04-29T15:41:06.457Z,68.20
2019-04-29T15:44:06.322Z,67.20
2019-04-29T15:46:47.099Z,67.60
2019-04-29T15:49:34.561Z,68.20
2019-04-29T15:52:25.807Z,67.30
2019-04-29T15:55:12.361Z,67.20
2019-04-29T15:58:00.118Z,67.20
2019-04-29T16:00:48.017Z,67.90
2019-04-29T16:03:37.608Z,68.70
2019-04-29T16:06:26.185Z,69.40
2019-04-29T16:09:15.476Z,69.50
2019-04-29T16:45:52.966Z,39.10
2019-04-29T16:48:41.122Z,35.00
2019-04-29T16:51:29.122Z,35.80
2019-04-29T16:54:20.653Z,39.20
2019-04-29T17:12:53.449Z,50.90
2019-04-29T17:15:44.610Z,53.90
2019-04-29T17:18:30.892Z,57.10
2019-04-29T17:21:18.584Z,61.30
2019-04-29T17:24:06.629Z,61.80
2019-04-29T17:27:05.082Z,63.10
2019-04-29T17:30:11.149Z,63.60
2019-04-29T17:33:01.841Z,63.40
2019-04-29T17:35:51.846Z,64.00
2019-04-29T17:38:39.689Z,64.40
2019-04-29T17:41:27.352Z,65.70
2019-04-29T17:44:28.622Z,65.80
2019-04-29T17:47:20.566Z,66.70
2019-04-29T17:50:13.741Z,69.30
2019-04-29T17:53:01.865Z,70.40
2019-04-29T17:55:51.499Z,70.20
2019-04-29T17:58:44.004Z,70.80
2019-04-29T18:01:42.836Z,72.20
2019-04-29T18:04:29.552Z,73.00
2019-04-29T18:07:21.841Z,73.80
2019-04-29T18:10:24.345Z,75.60
2019-04-29T18:13:07.077Z,74.60
2019-04-29T18:16:01.740Z,76.50
2019-04-29T18:18:53.121Z,76.60
2019-04-29T18:21:56.026Z,77.80
2019-04-29T18:24:45.766Z,78.40
2019-04-29T18:27:36.861Z,79.00
2019-04-29T18:30:35.383Z,79.50
2019-04-29T18:33:18.966Z,80.10
2019-04-29T18:36:07.167Z,80.60
2019-04-29T18:38:55.641Z,80.60
2019-04-29T18:41:44.838Z,80.70
2019-04-29T18:44:32.625Z,80.80
2019-04-29T18:47:22.931Z,81.30
2019-04-29T18:50:10.139Z,81.30
2019-04-29T18:52:57.925Z,81.80
2019-04-29T18:55:45.774Z,81.80
2019-04-29T18:58:35.491Z,82.40
2019-04-29T19:01:24.172Z,82.70
2019-04-29T19:04:31.649Z,82.30
2019-04-29T19:07:20.398Z,82.80
2019-04-29T19:10:14.330Z,83.10
2019-04-29T19:13:00.631Z,83.50
2019-04-29T19:15:48.746Z,83.80
2019-04-29T19:18:36.932Z,83.70
2019-04-29T19:21:30.483Z,84.30
2019-04-29T19:24:16.203Z,84.20
2019-04-29T19:27:09.126Z,84.30
2019-04-29T19:29:55.015Z,84.80
2019-04-29T19:32:45.037Z,85.10
2019-04-29T19:35:37.021Z,85.30
2019-04-29T19:38:22.381Z,85.70
2019-04-29T19:41:11.564Z,85.30
2019-04-29T19:43:59.417Z,85.80
2019-04-29T19:46:47.338Z,86.00
2019-04-29T19:49:35.964Z,86.20
2019-04-29T19:52:30.314Z,86.50
2019-04-29T19:55:13.410Z,86.70
2019-04-29T19:58:01.766Z,87.00
2019-04-29T20:00:50.320Z,86.80
2019-04-29T20:03:41.655Z,87.00
2019-04-29T20:06:30.956Z,87.00
2019-04-29T20:09:22.693Z,87.20
2019-04-29T20:12:13.115Z,87.00
2019-04-29T20:15:01.826Z,87.50
2019-04-29T20:18:06.787Z,87.30
2019-04-29T20:21:08.150Z,87.70
2019-04-29T20:23:46.783Z,87.50
2019-04-29T20:26:35.971Z,87.40
2019-04-29T20:29:27.275Z,87.20
2019-04-29T20:32:16.601Z,87.90
2019-04-29T20:35:08.565Z,87.90
2019-04-29T20:38:00.299Z,88.00
2019-04-29T20:40:47.057Z,88.50
2019-04-29T20:43:35.876Z,88.60
2019-04-29T20:46:27.430Z,88.50
2019-04-29T20:49:13.637Z,88.40
2019-04-29T20:52:05.289Z,88.70
2019-04-29T20:54:57.922Z,88.20
2019-04-29T20:57:42.324Z,88.50
2019-04-29T21:00:32.273Z,88.70
2019-04-29T21:03:27.857Z,88.10
2019-04-29T21:06:09.516Z,87.90
2019-04-29T21:08:57.589Z,87.40
2019-04-29T21:12:04.326Z,88.20
2019-04-29T21:15:14.826Z,87.40
2019-04-29T21:17:58.902Z,86.90
2019-04-29T21:20:46.802Z,87.90
2019-04-29T21:23:36.607Z,87.40
2019-04-29T21:26:26.180Z,87.50
2019-04-29T21:29:15.878Z,86.60
2019-04-29T21:32:05.916Z,87.20
2019-04-29T21:34:55.675Z,87.60
2019-04-29T21:37:48.056Z,87.90
2019-04-29T21:40:36.861Z,87.50
2019-04-29T21:43:32.570Z,87.10
2019-04-29T21:46:32.827Z,87.50
2019-04-29T21:49:20.725Z,86.40
2019-04-29T21:52:08.424Z,87.90
2019-04-29T21:54:56.981Z,87.30
2019-04-29T21:57:44.743Z,87.10
2019-04-29T22:00:32.882Z,87.10
2019-04-29T22:03:24.599Z,86.50
2019-04-29T22:06:10.165Z,87.20
2019-04-29T22:09:01.423Z,87.00
2019-04-29T22:11:47.297Z,87.80
2019-04-29T22:14:35.028Z,87.50
2019-04-29T22:17:26.372Z,87.50
2019-04-29T22:20:12.790Z,87.70
2019-04-29T22:23:00.369Z,87.50
2019-04-29T22:25:48.446Z,87.80
2019-04-29T22:28:36.160Z,88.00
2019-04-29T22:31:26.875Z,88.20
2019-04-29T22:34:18.092Z,88.20
2019-04-29T22:37:05.504Z,87.80
2019-04-29T22:39:53.357Z,88.30
2019-04-29T22:42:48.705Z,88.30
2019-04-29T22:45:35.909Z,88.20
2019-04-29T22:48:25.037Z,88.30
2019-04-29T22:51:15.224Z,88.40
2019-04-29T22:54:02.789Z,89.00
2019-04-29T22:56:53.738Z,89.20
2019-04-29T22:59:40.742Z,88.80
2019-04-29T23:02:28.611Z,89.40
2019-04-29T23:05:16.576Z,89.60
2019-04-29T23:08:05.100Z,89.70
2019-04-29T23:10:53.173Z,89.80
2019-04-29T23:13:41.131Z,89.40
2019-04-29T23:16:31.506Z,89.40
2019-04-29T23:19:19.021Z,89.30
2019-04-29T23:22:22.129Z,89.30
2019-04-29T23:25:26.618Z,89.70
2019-04-29T23:28:13.589Z,90.00
2019-04-29T23:31:01.501Z,90.00
2019-04-29T23:33:53.173Z,89.90
2019-04-29T23:36:38.725Z,90.00
2019-04-29T23:39:26.684Z,90.00
2019-04-29T23:42:16.268Z,90.00
2019-04-29T23:45:05.617Z,90.10
2019-04-29T23:47:55.166Z,90.40
2019-04-29T23:50:43.016Z,90.30
2019-04-29T23:53:30.842Z,90.40
2019-04-29T23:56:20.496Z,90.50
2019-04-29T23:59:14.866Z,90.50
